<?xml version="1.0" encoding="UTF-8" standalone="no" ?>
<gpx xmlns="http://www.topografix.com/GPX/1/1" xmlns:xsi="http://www.w3.org/2001/XMLSchema-instance" xsi:schemaLocation="http://www.topografix.com/GPX/1/1 http://www.topografix.com/GPX/1/1/gpx.xsd" version="1.1" creator="VisuGPX - https://www.visugpx.com">
  <metadata>
    <name>Montée Izaut-Arbon</name>
    <desc><![CDATA[Montée d'Izaut à Arbon pour éviter la route ou le sentier vtt classique.]]></desc>
  </metadata>
  <trk>
    <name><![CDATA[Montée Izaut-Arbon]]></name>
    <extensions>
      <line xmlns="http://www.topografix.com/GPX/gpx_style/0/2">
        <width>4</width>
      </line>
    </extensions>
    <trkseg>
      <trkpt lat="43.01628" lon="0.74996">
        <ele>427.5</ele>
        <time>2023-03-19T16:26:23.000Z</time>
      </trkpt>
      <trkpt lat="43.01626" lon="0.74991">
        <ele>427.6</ele>
        <time>2023-03-19T16:26:24.000Z</time>
      </trkpt>
      <trkpt lat="43.01626" lon="0.74976">
        <ele>427.9</ele>
        <time>2023-03-19T16:26:36.000Z</time>
      </trkpt>
      <trkpt lat="43.01624" lon="0.74963">
        <ele>428</ele>
        <time>2023-03-19T16:26:44.000Z</time>
      </trkpt>
      <trkpt lat="43.01622" lon="0.7495">
        <ele>428</ele>
        <time>2023-03-19T16:26:52.000Z</time>
      </trkpt>
      <trkpt lat="43.0162" lon="0.74937">
        <ele>428</ele>
        <time>2023-03-19T16:26:59.000Z</time>
      </trkpt>
      <trkpt lat="43.01621" lon="0.74925">
        <ele>428</ele>
        <time>2023-03-19T16:27:06.000Z</time>
      </trkpt>
      <trkpt lat="43.01622" lon="0.74911">
        <ele>427.9</ele>
        <time>2023-03-19T16:27:14.000Z</time>
      </trkpt>
      <trkpt lat="43.01623" lon="0.74897">
        <ele>427.7</ele>
        <time>2023-03-19T16:27:24.000Z</time>
      </trkpt>
      <trkpt lat="43.01623" lon="0.74897">
        <ele>427.7</ele>
        <time>2023-03-19T16:27:24.000Z</time>
      </trkpt>
      <trkpt lat="43.01625" lon="0.74884">
        <ele>427.5</ele>
        <time>2023-03-19T16:27:32.000Z</time>
      </trkpt>
      <trkpt lat="43.01627" lon="0.7487">
        <ele>427.4</ele>
        <time>2023-03-19T16:27:39.000Z</time>
      </trkpt>
      <trkpt lat="43.01629" lon="0.74857">
        <ele>427.4</ele>
        <time>2023-03-19T16:27:46.000Z</time>
      </trkpt>
      <trkpt lat="43.0163" lon="0.74845">
        <ele>427.3</ele>
        <time>2023-03-19T16:27:52.000Z</time>
      </trkpt>
      <trkpt lat="43.01632" lon="0.74831">
        <ele>427.3</ele>
        <time>2023-03-19T16:27:58.000Z</time>
      </trkpt>
      <trkpt lat="43.01632" lon="0.74817">
        <ele>427.3</ele>
        <time>2023-03-19T16:28:05.000Z</time>
      </trkpt>
      <trkpt lat="43.01633" lon="0.74804">
        <ele>427.2</ele>
        <time>2023-03-19T16:28:12.000Z</time>
      </trkpt>
      <trkpt lat="43.01633" lon="0.74789">
        <ele>427.2</ele>
        <time>2023-03-19T16:28:18.000Z</time>
      </trkpt>
      <trkpt lat="43.01633" lon="0.74776">
        <ele>427.2</ele>
        <time>2023-03-19T16:28:25.000Z</time>
      </trkpt>
      <trkpt lat="43.01635" lon="0.74763">
        <ele>427.1</ele>
        <time>2023-03-19T16:28:32.000Z</time>
      </trkpt>
      <trkpt lat="43.01636" lon="0.74747">
        <ele>426.9</ele>
        <time>2023-03-19T16:28:40.000Z</time>
      </trkpt>
      <trkpt lat="43.01638" lon="0.74734">
        <ele>426.4</ele>
        <time>2023-03-19T16:28:46.000Z</time>
      </trkpt>
      <trkpt lat="43.01638" lon="0.74722">
        <ele>426</ele>
        <time>2023-03-19T16:28:52.000Z</time>
      </trkpt>
      <trkpt lat="43.01639" lon="0.74708">
        <ele>426</ele>
        <time>2023-03-19T16:28:58.000Z</time>
      </trkpt>
      <trkpt lat="43.0164" lon="0.74694">
        <ele>426</ele>
        <time>2023-03-19T16:29:05.000Z</time>
      </trkpt>
      <trkpt lat="43.01641" lon="0.7468">
        <ele>425.9</ele>
        <time>2023-03-19T16:29:12.000Z</time>
      </trkpt>
      <trkpt lat="43.01641" lon="0.74668">
        <ele>425.9</ele>
        <time>2023-03-19T16:29:17.000Z</time>
      </trkpt>
      <trkpt lat="43.01643" lon="0.74655">
        <ele>426.3</ele>
        <time>2023-03-19T16:29:23.000Z</time>
      </trkpt>
      <trkpt lat="43.01644" lon="0.74641">
        <ele>426.7</ele>
        <time>2023-03-19T16:29:30.000Z</time>
      </trkpt>
      <trkpt lat="43.01646" lon="0.74628">
        <ele>426.7</ele>
        <time>2023-03-19T16:29:36.000Z</time>
      </trkpt>
      <trkpt lat="43.01647" lon="0.74614">
        <ele>426.7</ele>
        <time>2023-03-19T16:29:43.000Z</time>
      </trkpt>
      <trkpt lat="43.01649" lon="0.74601">
        <ele>426.7</ele>
        <time>2023-03-19T16:29:50.000Z</time>
      </trkpt>
      <trkpt lat="43.0165" lon="0.74588">
        <ele>426.6</ele>
        <time>2023-03-19T16:29:57.000Z</time>
      </trkpt>
      <trkpt lat="43.01651" lon="0.74574">
        <ele>426.6</ele>
        <time>2023-03-19T16:30:04.000Z</time>
      </trkpt>
      <trkpt lat="43.01652" lon="0.74561">
        <ele>426.5</ele>
        <time>2023-03-19T16:30:11.000Z</time>
      </trkpt>
      <trkpt lat="43.01654" lon="0.74547">
        <ele>426.5</ele>
        <time>2023-03-19T16:30:19.000Z</time>
      </trkpt>
      <trkpt lat="43.01655" lon="0.74533">
        <ele>426.4</ele>
        <time>2023-03-19T16:30:26.000Z</time>
      </trkpt>
      <trkpt lat="43.01656" lon="0.74521">
        <ele>426.3</ele>
        <time>2023-03-19T16:30:33.000Z</time>
      </trkpt>
      <trkpt lat="43.01657" lon="0.74507">
        <ele>426.1</ele>
        <time>2023-03-19T16:30:41.000Z</time>
      </trkpt>
      <trkpt lat="43.01658" lon="0.74493">
        <ele>425.8</ele>
        <time>2023-03-19T16:30:49.000Z</time>
      </trkpt>
      <trkpt lat="43.01658" lon="0.74479">
        <ele>425.5</ele>
        <time>2023-03-19T16:30:56.000Z</time>
      </trkpt>
      <trkpt lat="43.01656" lon="0.74466">
        <ele>425.1</ele>
        <time>2023-03-19T16:31:03.000Z</time>
      </trkpt>
      <trkpt lat="43.01656" lon="0.74451">
        <ele>424.6</ele>
        <time>2023-03-19T16:31:09.000Z</time>
      </trkpt>
      <trkpt lat="43.01655" lon="0.74438">
        <ele>424.4</ele>
        <time>2023-03-19T16:31:15.000Z</time>
      </trkpt>
      <trkpt lat="43.01654" lon="0.74426">
        <ele>424.5</ele>
        <time>2023-03-19T16:31:22.000Z</time>
      </trkpt>
      <trkpt lat="43.01653" lon="0.74413">
        <ele>424.4</ele>
        <time>2023-03-19T16:31:30.000Z</time>
      </trkpt>
      <trkpt lat="43.01652" lon="0.74399">
        <ele>424.2</ele>
        <time>2023-03-19T16:31:38.000Z</time>
      </trkpt>
      <trkpt lat="43.01651" lon="0.74385">
        <ele>424</ele>
        <time>2023-03-19T16:31:46.000Z</time>
      </trkpt>
      <trkpt lat="43.01649" lon="0.74373">
        <ele>423.7</ele>
        <time>2023-03-19T16:31:54.000Z</time>
      </trkpt>
      <trkpt lat="43.01648" lon="0.7436">
        <ele>423.3</ele>
        <time>2023-03-19T16:32:01.000Z</time>
      </trkpt>
      <trkpt lat="43.01647" lon="0.74348">
        <ele>422.9</ele>
        <time>2023-03-19T16:32:09.000Z</time>
      </trkpt>
      <trkpt lat="43.01647" lon="0.74333">
        <ele>422.4</ele>
        <time>2023-03-19T16:32:17.000Z</time>
      </trkpt>
      <trkpt lat="43.01647" lon="0.74321">
        <ele>421.9</ele>
        <time>2023-03-19T16:32:25.000Z</time>
      </trkpt>
      <trkpt lat="43.01645" lon="0.74309">
        <ele>421.5</ele>
        <time>2023-03-19T16:32:32.000Z</time>
      </trkpt>
      <trkpt lat="43.01645" lon="0.74295">
        <ele>421</ele>
        <time>2023-03-19T16:32:41.000Z</time>
      </trkpt>
      <trkpt lat="43.01645" lon="0.74283">
        <ele>420.5</ele>
        <time>2023-03-19T16:32:47.000Z</time>
      </trkpt>
      <trkpt lat="43.01645" lon="0.74268">
        <ele>419.7</ele>
        <time>2023-03-19T16:32:53.000Z</time>
      </trkpt>
      <trkpt lat="43.01643" lon="0.74256">
        <ele>419.1</ele>
        <time>2023-03-19T16:33:00.000Z</time>
      </trkpt>
      <trkpt lat="43.01642" lon="0.74243">
        <ele>418.5</ele>
        <time>2023-03-19T16:33:05.000Z</time>
      </trkpt>
      <trkpt lat="43.01639" lon="0.7423">
        <ele>418.2</ele>
        <time>2023-03-19T16:33:12.000Z</time>
      </trkpt>
      <trkpt lat="43.01637" lon="0.74217">
        <ele>418.1</ele>
        <time>2023-03-19T16:33:19.000Z</time>
      </trkpt>
      <trkpt lat="43.01636" lon="0.74204">
        <ele>417.8</ele>
        <time>2023-03-19T16:33:27.000Z</time>
      </trkpt>
      <trkpt lat="43.01635" lon="0.74191">
        <ele>417.6</ele>
        <time>2023-03-19T16:33:35.000Z</time>
      </trkpt>
      <trkpt lat="43.01633" lon="0.74177">
        <ele>417.5</ele>
        <time>2023-03-19T16:33:44.000Z</time>
      </trkpt>
      <trkpt lat="43.01632" lon="0.74165">
        <ele>417.2</ele>
        <time>2023-03-19T16:33:52.000Z</time>
      </trkpt>
      <trkpt lat="43.01632" lon="0.74151">
        <ele>416.7</ele>
        <time>2023-03-19T16:33:59.000Z</time>
      </trkpt>
      <trkpt lat="43.01632" lon="0.74138">
        <ele>416.3</ele>
        <time>2023-03-19T16:34:05.000Z</time>
      </trkpt>
      <trkpt lat="43.01631" lon="0.74125">
        <ele>416.3</ele>
        <time>2023-03-19T16:34:13.000Z</time>
      </trkpt>
      <trkpt lat="43.0163" lon="0.74112">
        <ele>416.3</ele>
        <time>2023-03-19T16:34:21.000Z</time>
      </trkpt>
      <trkpt lat="43.01626" lon="0.74099">
        <ele>416.8</ele>
        <time>2023-03-19T16:34:29.000Z</time>
      </trkpt>
      <trkpt lat="43.01621" lon="0.74089">
        <ele>417.5</ele>
        <time>2023-03-19T16:34:37.000Z</time>
      </trkpt>
      <trkpt lat="43.01615" lon="0.74079">
        <ele>418.4</ele>
        <time>2023-03-19T16:34:46.000Z</time>
      </trkpt>
      <trkpt lat="43.01607" lon="0.74072">
        <ele>420.2</ele>
        <time>2023-03-19T16:34:50.000Z</time>
      </trkpt>
      <trkpt lat="43.01597" lon="0.74065">
        <ele>422.8</ele>
        <time>2023-03-19T16:34:55.000Z</time>
      </trkpt>
      <trkpt lat="43.01588" lon="0.7406">
        <ele>424.9</ele>
        <time>2023-03-19T16:35:00.000Z</time>
      </trkpt>
      <trkpt lat="43.01579" lon="0.74058">
        <ele>427.7</ele>
        <time>2023-03-19T16:35:06.000Z</time>
      </trkpt>
      <trkpt lat="43.0157" lon="0.74057">
        <ele>431.2</ele>
        <time>2023-03-19T16:35:15.000Z</time>
      </trkpt>
      <trkpt lat="43.01562" lon="0.7405">
        <ele>434.3</ele>
        <time>2023-03-19T16:35:32.000Z</time>
      </trkpt>
      <trkpt lat="43.01554" lon="0.74045">
        <ele>437.9</ele>
        <time>2023-03-19T16:35:45.000Z</time>
      </trkpt>
      <trkpt lat="43.01548" lon="0.74034">
        <ele>440.8</ele>
        <time>2023-03-19T16:35:58.000Z</time>
      </trkpt>
      <trkpt lat="43.01545" lon="0.74022">
        <ele>442.1</ele>
        <time>2023-03-19T16:36:06.000Z</time>
      </trkpt>
      <trkpt lat="43.01542" lon="0.74011">
        <ele>443.4</ele>
        <time>2023-03-19T16:36:17.000Z</time>
      </trkpt>
      <trkpt lat="43.01538" lon="0.73999">
        <ele>445.1</ele>
        <time>2023-03-19T16:36:30.000Z</time>
      </trkpt>
      <trkpt lat="43.01535" lon="0.73987">
        <ele>445.9</ele>
        <time>2023-03-19T16:36:41.000Z</time>
      </trkpt>
      <trkpt lat="43.01535" lon="0.73979">
        <ele>445.6</ele>
        <time>2023-03-19T16:36:50.000Z</time>
      </trkpt>
      <trkpt lat="43.01535" lon="0.73975">
        <ele>445.4</ele>
        <time>2023-03-19T16:36:55.000Z</time>
      </trkpt>
      <trkpt lat="43.01533" lon="0.73962">
        <ele>445.8</ele>
        <time>2023-03-19T16:37:02.000Z</time>
      </trkpt>
      <trkpt lat="43.01531" lon="0.73949">
        <ele>446.5</ele>
        <time>2023-03-19T16:37:11.000Z</time>
      </trkpt>
      <trkpt lat="43.0153" lon="0.73937">
        <ele>446.7</ele>
        <time>2023-03-19T16:37:20.000Z</time>
      </trkpt>
      <trkpt lat="43.01528" lon="0.73923">
        <ele>447</ele>
        <time>2023-03-19T16:37:30.000Z</time>
      </trkpt>
      <trkpt lat="43.01526" lon="0.7391">
        <ele>447.7</ele>
        <time>2023-03-19T16:37:40.000Z</time>
      </trkpt>
      <trkpt lat="43.01526" lon="0.73908">
        <ele>447.7</ele>
        <time>2023-03-19T16:37:44.000Z</time>
      </trkpt>
      <trkpt lat="43.01525" lon="0.73905">
        <ele>448.1</ele>
        <time>2023-03-19T16:37:46.000Z</time>
      </trkpt>
      <trkpt lat="43.01522" lon="0.73893">
        <ele>449</ele>
        <time>2023-03-19T16:37:54.000Z</time>
      </trkpt>
      <trkpt lat="43.01521" lon="0.73881">
        <ele>449.4</ele>
        <time>2023-03-19T16:38:07.000Z</time>
      </trkpt>
      <trkpt lat="43.0152" lon="0.73874">
        <ele>449.6</ele>
        <time>2023-03-19T16:38:12.000Z</time>
      </trkpt>
      <trkpt lat="43.01517" lon="0.73861">
        <ele>450.1</ele>
        <time>2023-03-19T16:38:17.000Z</time>
      </trkpt>
      <trkpt lat="43.01516" lon="0.73848">
        <ele>450.2</ele>
        <time>2023-03-19T16:38:24.000Z</time>
      </trkpt>
      <trkpt lat="43.01513" lon="0.73836">
        <ele>450.6</ele>
        <time>2023-03-19T16:38:32.000Z</time>
      </trkpt>
      <trkpt lat="43.01512" lon="0.7383">
        <ele>451.2</ele>
        <time>2023-03-19T16:38:39.000Z</time>
      </trkpt>
      <trkpt lat="43.01511" lon="0.73825">
        <ele>451</ele>
        <time>2023-03-19T16:38:40.000Z</time>
      </trkpt>
      <trkpt lat="43.0151" lon="0.73812">
        <ele>450.7</ele>
        <time>2023-03-19T16:38:45.000Z</time>
      </trkpt>
      <trkpt lat="43.01508" lon="0.73799">
        <ele>450.6</ele>
        <time>2023-03-19T16:38:51.000Z</time>
      </trkpt>
      <trkpt lat="43.01506" lon="0.73787">
        <ele>451.5</ele>
        <time>2023-03-19T16:38:57.000Z</time>
      </trkpt>
      <trkpt lat="43.01502" lon="0.73774">
        <ele>453</ele>
        <time>2023-03-19T16:39:04.000Z</time>
      </trkpt>
      <trkpt lat="43.01498" lon="0.73761">
        <ele>454.5</ele>
        <time>2023-03-19T16:39:11.000Z</time>
      </trkpt>
      <trkpt lat="43.01494" lon="0.73748">
        <ele>455.8</ele>
        <time>2023-03-19T16:39:19.000Z</time>
      </trkpt>
      <trkpt lat="43.01489" lon="0.73737">
        <ele>458.1</ele>
        <time>2023-03-19T16:39:26.000Z</time>
      </trkpt>
      <trkpt lat="43.01487" lon="0.73725">
        <ele>458.4</ele>
        <time>2023-03-19T16:39:33.000Z</time>
      </trkpt>
      <trkpt lat="43.01486" lon="0.73711">
        <ele>458.1</ele>
        <time>2023-03-19T16:39:39.000Z</time>
      </trkpt>
      <trkpt lat="43.01483" lon="0.73697">
        <ele>459.1</ele>
        <time>2023-03-19T16:39:45.000Z</time>
      </trkpt>
      <trkpt lat="43.01481" lon="0.73684">
        <ele>459.8</ele>
        <time>2023-03-19T16:39:51.000Z</time>
      </trkpt>
      <trkpt lat="43.01478" lon="0.7367">
        <ele>461.1</ele>
        <time>2023-03-19T16:39:58.000Z</time>
      </trkpt>
      <trkpt lat="43.01475" lon="0.73658">
        <ele>462.6</ele>
        <time>2023-03-19T16:40:05.000Z</time>
      </trkpt>
      <trkpt lat="43.01474" lon="0.73646">
        <ele>463.1</ele>
        <time>2023-03-19T16:40:12.000Z</time>
      </trkpt>
      <trkpt lat="43.01472" lon="0.73632">
        <ele>463.9</ele>
        <time>2023-03-19T16:40:19.000Z</time>
      </trkpt>
      <trkpt lat="43.01473" lon="0.73619">
        <ele>463.7</ele>
        <time>2023-03-19T16:40:26.000Z</time>
      </trkpt>
      <trkpt lat="43.01473" lon="0.73607">
        <ele>463.5</ele>
        <time>2023-03-19T16:40:34.000Z</time>
      </trkpt>
      <trkpt lat="43.01473" lon="0.73592">
        <ele>464</ele>
        <time>2023-03-19T16:40:42.000Z</time>
      </trkpt>
      <trkpt lat="43.01474" lon="0.73578">
        <ele>464.2</ele>
        <time>2023-03-19T16:40:48.000Z</time>
      </trkpt>
      <trkpt lat="43.01476" lon="0.73566">
        <ele>463</ele>
        <time>2023-03-19T16:40:54.000Z</time>
      </trkpt>
      <trkpt lat="43.01476" lon="0.73553">
        <ele>463.3</ele>
        <time>2023-03-19T16:41:00.000Z</time>
      </trkpt>
      <trkpt lat="43.01476" lon="0.73539">
        <ele>463.9</ele>
        <time>2023-03-19T16:41:09.000Z</time>
      </trkpt>
      <trkpt lat="43.01475" lon="0.73527">
        <ele>465.1</ele>
        <time>2023-03-19T16:41:16.000Z</time>
      </trkpt>
      <trkpt lat="43.01474" lon="0.73514">
        <ele>466.4</ele>
        <time>2023-03-19T16:41:24.000Z</time>
      </trkpt>
      <trkpt lat="43.01472" lon="0.73501">
        <ele>468.4</ele>
        <time>2023-03-19T16:41:32.000Z</time>
      </trkpt>
      <trkpt lat="43.0147" lon="0.73487">
        <ele>470.4</ele>
        <time>2023-03-19T16:41:40.000Z</time>
      </trkpt>
      <trkpt lat="43.01468" lon="0.73474">
        <ele>472.5</ele>
        <time>2023-03-19T16:41:49.000Z</time>
      </trkpt>
      <trkpt lat="43.01468" lon="0.7346">
        <ele>474</ele>
        <time>2023-03-19T16:41:59.000Z</time>
      </trkpt>
      <trkpt lat="43.01466" lon="0.73447">
        <ele>476</ele>
        <time>2023-03-19T16:42:08.000Z</time>
      </trkpt>
      <trkpt lat="43.01466" lon="0.73435">
        <ele>477.2</ele>
        <time>2023-03-19T16:42:17.000Z</time>
      </trkpt>
      <trkpt lat="43.01469" lon="0.73421">
        <ele>476.6</ele>
        <time>2023-03-19T16:42:26.000Z</time>
      </trkpt>
      <trkpt lat="43.01472" lon="0.73409">
        <ele>476.9</ele>
        <time>2023-03-19T16:42:32.000Z</time>
      </trkpt>
      <trkpt lat="43.01474" lon="0.73397">
        <ele>479</ele>
        <time>2023-03-19T16:42:36.000Z</time>
      </trkpt>
      <trkpt lat="43.01476" lon="0.73385">
        <ele>481.5</ele>
        <time>2023-03-19T16:42:41.000Z</time>
      </trkpt>
      <trkpt lat="43.0148" lon="0.73372">
        <ele>484.9</ele>
        <time>2023-03-19T16:42:47.000Z</time>
      </trkpt>
      <trkpt lat="43.01482" lon="0.7336">
        <ele>488.7</ele>
        <time>2023-03-19T16:42:53.000Z</time>
      </trkpt>
      <trkpt lat="43.01486" lon="0.73348">
        <ele>493.7</ele>
        <time>2023-03-19T16:43:01.000Z</time>
      </trkpt>
      <trkpt lat="43.01492" lon="0.73338">
        <ele>498.1</ele>
        <time>2023-03-19T16:43:09.000Z</time>
      </trkpt>
      <trkpt lat="43.01501" lon="0.73335">
        <ele>499.6</ele>
        <time>2023-03-19T16:43:17.000Z</time>
      </trkpt>
      <trkpt lat="43.0151" lon="0.73328">
        <ele>503.9</ele>
        <time>2023-03-19T16:43:26.000Z</time>
      </trkpt>
      <trkpt lat="43.0152" lon="0.73324">
        <ele>507.3</ele>
        <time>2023-03-19T16:43:34.000Z</time>
      </trkpt>
      <trkpt lat="43.01529" lon="0.73323">
        <ele>509</ele>
        <time>2023-03-19T16:43:44.000Z</time>
      </trkpt>
      <trkpt lat="43.01539" lon="0.73323">
        <ele>511.5</ele>
        <time>2023-03-19T16:43:55.000Z</time>
      </trkpt>
      <trkpt lat="43.01549" lon="0.73323">
        <ele>513.2</ele>
        <time>2023-03-19T16:44:04.000Z</time>
      </trkpt>
      <trkpt lat="43.01559" lon="0.73324">
        <ele>515.4</ele>
        <time>2023-03-19T16:44:13.000Z</time>
      </trkpt>
      <trkpt lat="43.01569" lon="0.73322">
        <ele>518.5</ele>
        <time>2023-03-19T16:44:20.000Z</time>
      </trkpt>
      <trkpt lat="43.01578" lon="0.73321">
        <ele>521.1</ele>
        <time>2023-03-19T16:44:26.000Z</time>
      </trkpt>
      <trkpt lat="43.01588" lon="0.73318">
        <ele>524.5</ele>
        <time>2023-03-19T16:44:33.000Z</time>
      </trkpt>
      <trkpt lat="43.01597" lon="0.73317">
        <ele>527.2</ele>
        <time>2023-03-19T16:44:40.000Z</time>
      </trkpt>
      <trkpt lat="43.01607" lon="0.73316">
        <ele>529.5</ele>
        <time>2023-03-19T16:44:46.000Z</time>
      </trkpt>
      <trkpt lat="43.01616" lon="0.73319">
        <ele>530.4</ele>
        <time>2023-03-19T16:44:54.000Z</time>
      </trkpt>
      <trkpt lat="43.01625" lon="0.73326">
        <ele>529.4</ele>
        <time>2023-03-19T16:45:02.000Z</time>
      </trkpt>
      <trkpt lat="43.01634" lon="0.73333">
        <ele>528.9</ele>
        <time>2023-03-19T16:45:08.000Z</time>
      </trkpt>
      <trkpt lat="43.01642" lon="0.7334">
        <ele>528.8</ele>
        <time>2023-03-19T16:45:15.000Z</time>
      </trkpt>
      <trkpt lat="43.0165" lon="0.73346">
        <ele>529.7</ele>
        <time>2023-03-19T16:45:23.000Z</time>
      </trkpt>
      <trkpt lat="43.01659" lon="0.73351">
        <ele>531.3</ele>
        <time>2023-03-19T16:45:31.000Z</time>
      </trkpt>
      <trkpt lat="43.01667" lon="0.73359">
        <ele>531.8</ele>
        <time>2023-03-19T16:45:41.000Z</time>
      </trkpt>
      <trkpt lat="43.01674" lon="0.73366">
        <ele>533</ele>
        <time>2023-03-19T16:45:48.000Z</time>
      </trkpt>
      <trkpt lat="43.0168" lon="0.73376">
        <ele>533.4</ele>
        <time>2023-03-19T16:45:56.000Z</time>
      </trkpt>
      <trkpt lat="43.01688" lon="0.73384">
        <ele>535.2</ele>
        <time>2023-03-19T16:46:03.000Z</time>
      </trkpt>
      <trkpt lat="43.01695" lon="0.73395">
        <ele>535.8</ele>
        <time>2023-03-19T16:46:10.000Z</time>
      </trkpt>
      <trkpt lat="43.01702" lon="0.73404">
        <ele>536.4</ele>
        <time>2023-03-19T16:46:17.000Z</time>
      </trkpt>
      <trkpt lat="43.01706" lon="0.73416">
        <ele>535.5</ele>
        <time>2023-03-19T16:46:23.000Z</time>
      </trkpt>
      <trkpt lat="43.01711" lon="0.73428">
        <ele>535.2</ele>
        <time>2023-03-19T16:46:30.000Z</time>
      </trkpt>
      <trkpt lat="43.01718" lon="0.73439">
        <ele>536.3</ele>
        <time>2023-03-19T16:46:40.000Z</time>
      </trkpt>
      <trkpt lat="43.01724" lon="0.7345">
        <ele>536.3</ele>
        <time>2023-03-19T16:46:48.000Z</time>
      </trkpt>
      <trkpt lat="43.0173" lon="0.73461">
        <ele>535.7</ele>
        <time>2023-03-19T16:46:54.000Z</time>
      </trkpt>
      <trkpt lat="43.01735" lon="0.73473">
        <ele>534.4</ele>
        <time>2023-03-19T16:47:01.000Z</time>
      </trkpt>
      <trkpt lat="43.01742" lon="0.73486">
        <ele>533.6</ele>
        <time>2023-03-19T16:47:09.000Z</time>
      </trkpt>
      <trkpt lat="43.01743" lon="0.73499">
        <ele>531.3</ele>
        <time>2023-03-19T16:47:16.000Z</time>
      </trkpt>
      <trkpt lat="43.01747" lon="0.73511">
        <ele>529.6</ele>
        <time>2023-03-19T16:47:24.000Z</time>
      </trkpt>
      <trkpt lat="43.01752" lon="0.73525">
        <ele>527.7</ele>
        <time>2023-03-19T16:47:31.000Z</time>
      </trkpt>
      <trkpt lat="43.0176" lon="0.73531">
        <ele>527.1</ele>
        <time>2023-03-19T16:47:37.000Z</time>
      </trkpt>
      <trkpt lat="43.0176" lon="0.73519">
        <ele>529.5</ele>
        <time>2023-03-19T16:48:08.000Z</time>
      </trkpt>
      <trkpt lat="43.01761" lon="0.73506">
        <ele>532</ele>
        <time>2023-03-19T16:48:25.000Z</time>
      </trkpt>
      <trkpt lat="43.01761" lon="0.73493">
        <ele>534.3</ele>
        <time>2023-03-19T16:48:36.000Z</time>
      </trkpt>
      <trkpt lat="43.0176" lon="0.7348">
        <ele>536.9</ele>
        <time>2023-03-19T16:48:47.000Z</time>
      </trkpt>
      <trkpt lat="43.01759" lon="0.73467">
        <ele>539.4</ele>
        <time>2023-03-19T16:48:57.000Z</time>
      </trkpt>
      <trkpt lat="43.01757" lon="0.73454">
        <ele>541.8</ele>
        <time>2023-03-19T16:49:09.000Z</time>
      </trkpt>
      <trkpt lat="43.01757" lon="0.7344">
        <ele>544.2</ele>
        <time>2023-03-19T16:49:19.000Z</time>
      </trkpt>
      <trkpt lat="43.01757" lon="0.73427">
        <ele>546.4</ele>
        <time>2023-03-19T16:49:30.000Z</time>
      </trkpt>
      <trkpt lat="43.01757" lon="0.73414">
        <ele>548.7</ele>
        <time>2023-03-19T16:49:39.000Z</time>
      </trkpt>
      <trkpt lat="43.01755" lon="0.73401">
        <ele>551.1</ele>
        <time>2023-03-19T16:49:48.000Z</time>
      </trkpt>
      <trkpt lat="43.01752" lon="0.73389">
        <ele>553.7</ele>
        <time>2023-03-19T16:49:58.000Z</time>
      </trkpt>
      <trkpt lat="43.01747" lon="0.73378">
        <ele>555.5</ele>
        <time>2023-03-19T16:50:07.000Z</time>
      </trkpt>
      <trkpt lat="43.01742" lon="0.73368">
        <ele>556.7</ele>
        <time>2023-03-19T16:50:14.000Z</time>
      </trkpt>
      <trkpt lat="43.01738" lon="0.73356">
        <ele>558.3</ele>
        <time>2023-03-19T16:50:23.000Z</time>
      </trkpt>
      <trkpt lat="43.01733" lon="0.73345">
        <ele>559.8</ele>
        <time>2023-03-19T16:50:31.000Z</time>
      </trkpt>
      <trkpt lat="43.01726" lon="0.73336">
        <ele>561</ele>
        <time>2023-03-19T16:50:37.000Z</time>
      </trkpt>
      <trkpt lat="43.01721" lon="0.73325">
        <ele>562.7</ele>
        <time>2023-03-19T16:50:43.000Z</time>
      </trkpt>
      <trkpt lat="43.01714" lon="0.73315">
        <ele>563.1</ele>
        <time>2023-03-19T16:50:50.000Z</time>
      </trkpt>
      <trkpt lat="43.01708" lon="0.73307">
        <ele>563.5</ele>
        <time>2023-03-19T16:50:55.000Z</time>
      </trkpt>
      <trkpt lat="43.01702" lon="0.73297">
        <ele>564.4</ele>
        <time>2023-03-19T16:51:00.000Z</time>
      </trkpt>
      <trkpt lat="43.01694" lon="0.73288">
        <ele>564.9</ele>
        <time>2023-03-19T16:51:07.000Z</time>
      </trkpt>
      <trkpt lat="43.01686" lon="0.73278">
        <ele>565.5</ele>
        <time>2023-03-19T16:51:13.000Z</time>
      </trkpt>
      <trkpt lat="43.01679" lon="0.7327">
        <ele>566.3</ele>
        <time>2023-03-19T16:51:20.000Z</time>
      </trkpt>
      <trkpt lat="43.01671" lon="0.73264">
        <ele>566</ele>
        <time>2023-03-19T16:51:26.000Z</time>
      </trkpt>
      <trkpt lat="43.01662" lon="0.73256">
        <ele>566.4</ele>
        <time>2023-03-19T16:51:33.000Z</time>
      </trkpt>
      <trkpt lat="43.01654" lon="0.73249">
        <ele>567</ele>
        <time>2023-03-19T16:51:40.000Z</time>
      </trkpt>
      <trkpt lat="43.01646" lon="0.73241">
        <ele>567.4</ele>
        <time>2023-03-19T16:51:48.000Z</time>
      </trkpt>
      <trkpt lat="43.01638" lon="0.73234">
        <ele>567.5</ele>
        <time>2023-03-19T16:51:54.000Z</time>
      </trkpt>
      <trkpt lat="43.0163" lon="0.73227">
        <ele>567.9</ele>
        <time>2023-03-19T16:52:01.000Z</time>
      </trkpt>
      <trkpt lat="43.01621" lon="0.7322">
        <ele>567.5</ele>
        <time>2023-03-19T16:52:08.000Z</time>
      </trkpt>
      <trkpt lat="43.01613" lon="0.73214">
        <ele>566.9</ele>
        <time>2023-03-19T16:52:15.000Z</time>
      </trkpt>
      <trkpt lat="43.01606" lon="0.73206">
        <ele>567.1</ele>
        <time>2023-03-19T16:52:22.000Z</time>
      </trkpt>
      <trkpt lat="43.01599" lon="0.73198">
        <ele>566.9</ele>
        <time>2023-03-19T16:52:28.000Z</time>
      </trkpt>
      <trkpt lat="43.01592" lon="0.73187">
        <ele>567.9</ele>
        <time>2023-03-19T16:52:35.000Z</time>
      </trkpt>
      <trkpt lat="43.01586" lon="0.73176">
        <ele>568.7</ele>
        <time>2023-03-19T16:52:42.000Z</time>
      </trkpt>
      <trkpt lat="43.0158" lon="0.73165">
        <ele>568.8</ele>
        <time>2023-03-19T16:52:49.000Z</time>
      </trkpt>
      <trkpt lat="43.01574" lon="0.73155">
        <ele>568.5</ele>
        <time>2023-03-19T16:52:57.000Z</time>
      </trkpt>
      <trkpt lat="43.01569" lon="0.73145">
        <ele>568.2</ele>
        <time>2023-03-19T16:53:04.000Z</time>
      </trkpt>
      <trkpt lat="43.01563" lon="0.73132">
        <ele>567.5</ele>
        <time>2023-03-19T16:53:11.000Z</time>
      </trkpt>
      <trkpt lat="43.01556" lon="0.73121">
        <ele>565.9</ele>
        <time>2023-03-19T16:53:16.000Z</time>
      </trkpt>
      <trkpt lat="43.01547" lon="0.73112">
        <ele>565.1</ele>
        <time>2023-03-19T16:53:21.000Z</time>
      </trkpt>
      <trkpt lat="43.01537" lon="0.73107">
        <ele>563.9</ele>
        <time>2023-03-19T16:53:27.000Z</time>
      </trkpt>
      <trkpt lat="43.01526" lon="0.73105">
        <ele>562.5</ele>
        <time>2023-03-19T16:53:32.000Z</time>
      </trkpt>
      <trkpt lat="43.01517" lon="0.73107">
        <ele>563.2</ele>
        <time>2023-03-19T16:53:38.000Z</time>
      </trkpt>
      <trkpt lat="43.01508" lon="0.7311">
        <ele>563.4</ele>
        <time>2023-03-19T16:53:44.000Z</time>
      </trkpt>
      <trkpt lat="43.015" lon="0.73117">
        <ele>562.7</ele>
        <time>2023-03-19T16:53:51.000Z</time>
      </trkpt>
      <trkpt lat="43.01491" lon="0.73123">
        <ele>563.9</ele>
        <time>2023-03-19T16:53:58.000Z</time>
      </trkpt>
      <trkpt lat="43.01482" lon="0.73127">
        <ele>565.4</ele>
        <time>2023-03-19T16:54:05.000Z</time>
      </trkpt>
      <trkpt lat="43.01473" lon="0.7313">
        <ele>566.9</ele>
        <time>2023-03-19T16:54:11.000Z</time>
      </trkpt>
      <trkpt lat="43.01464" lon="0.73134">
        <ele>568.8</ele>
        <time>2023-03-19T16:54:17.000Z</time>
      </trkpt>
      <trkpt lat="43.01455" lon="0.73135">
        <ele>571.3</ele>
        <time>2023-03-19T16:54:24.000Z</time>
      </trkpt>
      <trkpt lat="43.01444" lon="0.73137">
        <ele>573.5</ele>
        <time>2023-03-19T16:54:31.000Z</time>
      </trkpt>
      <trkpt lat="43.01434" lon="0.73141">
        <ele>574.9</ele>
        <time>2023-03-19T16:54:38.000Z</time>
      </trkpt>
      <trkpt lat="43.01426" lon="0.73146">
        <ele>575.2</ele>
        <time>2023-03-19T16:54:45.000Z</time>
      </trkpt>
      <trkpt lat="43.01417" lon="0.73152">
        <ele>575.1</ele>
        <time>2023-03-19T16:54:52.000Z</time>
      </trkpt>
      <trkpt lat="43.01409" lon="0.73159">
        <ele>574.1</ele>
        <time>2023-03-19T16:54:59.000Z</time>
      </trkpt>
      <trkpt lat="43.01399" lon="0.73163">
        <ele>574.1</ele>
        <time>2023-03-19T16:55:06.000Z</time>
      </trkpt>
      <trkpt lat="43.01389" lon="0.73164">
        <ele>575</ele>
        <time>2023-03-19T16:55:13.000Z</time>
      </trkpt>
      <trkpt lat="43.01379" lon="0.73168">
        <ele>574.5</ele>
        <time>2023-03-19T16:55:20.000Z</time>
      </trkpt>
      <trkpt lat="43.01369" lon="0.73172">
        <ele>574</ele>
        <time>2023-03-19T16:55:28.000Z</time>
      </trkpt>
      <trkpt lat="43.01359" lon="0.73173">
        <ele>574</ele>
        <time>2023-03-19T16:55:36.000Z</time>
      </trkpt>
      <trkpt lat="43.01349" lon="0.73176">
        <ele>573</ele>
        <time>2023-03-19T16:55:42.000Z</time>
      </trkpt>
      <trkpt lat="43.0134" lon="0.73181">
        <ele>571.2</ele>
        <time>2023-03-19T16:55:48.000Z</time>
      </trkpt>
      <trkpt lat="43.01331" lon="0.73185">
        <ele>570.1</ele>
        <time>2023-03-19T16:55:54.000Z</time>
      </trkpt>
      <trkpt lat="43.01322" lon="0.73187">
        <ele>570</ele>
        <time>2023-03-19T16:56:01.000Z</time>
      </trkpt>
      <trkpt lat="43.01313" lon="0.73185">
        <ele>571.2</ele>
        <time>2023-03-19T16:56:08.000Z</time>
      </trkpt>
      <trkpt lat="43.01303" lon="0.73185">
        <ele>572</ele>
        <time>2023-03-19T16:56:15.000Z</time>
      </trkpt>
      <trkpt lat="43.01294" lon="0.73186">
        <ele>573.4</ele>
        <time>2023-03-19T16:56:22.000Z</time>
      </trkpt>
      <trkpt lat="43.01284" lon="0.73191">
        <ele>574.1</ele>
        <time>2023-03-19T16:56:28.000Z</time>
      </trkpt>
      <trkpt lat="43.01278" lon="0.73201">
        <ele>575.1</ele>
        <time>2023-03-19T16:56:35.000Z</time>
      </trkpt>
      <trkpt lat="43.01274" lon="0.73213">
        <ele>577.3</ele>
        <time>2023-03-19T16:56:44.000Z</time>
      </trkpt>
      <trkpt lat="43.01273" lon="0.73226">
        <ele>578.5</ele>
        <time>2023-03-19T16:56:52.000Z</time>
      </trkpt>
      <trkpt lat="43.01271" lon="0.73239">
        <ele>580.9</ele>
        <time>2023-03-19T16:56:59.000Z</time>
      </trkpt>
      <trkpt lat="43.01272" lon="0.73252">
        <ele>582.1</ele>
        <time>2023-03-19T16:57:06.000Z</time>
      </trkpt>
      <trkpt lat="43.01275" lon="0.73265">
        <ele>582.3</ele>
        <time>2023-03-19T16:57:12.000Z</time>
      </trkpt>
      <trkpt lat="43.01281" lon="0.73276">
        <ele>581.2</ele>
        <time>2023-03-19T16:57:18.000Z</time>
      </trkpt>
      <trkpt lat="43.01283" lon="0.73289">
        <ele>581.7</ele>
        <time>2023-03-19T16:57:29.000Z</time>
      </trkpt>
      <trkpt lat="43.01283" lon="0.73302">
        <ele>582.9</ele>
        <time>2023-03-19T16:57:37.000Z</time>
      </trkpt>
      <trkpt lat="43.0128" lon="0.73315">
        <ele>585.8</ele>
        <time>2023-03-19T16:57:45.000Z</time>
      </trkpt>
      <trkpt lat="43.0128" lon="0.73328">
        <ele>587.2</ele>
        <time>2023-03-19T16:57:53.000Z</time>
      </trkpt>
      <trkpt lat="43.01281" lon="0.73341">
        <ele>587.9</ele>
        <time>2023-03-19T16:57:59.000Z</time>
      </trkpt>
      <trkpt lat="43.01281" lon="0.73355">
        <ele>588.8</ele>
        <time>2023-03-19T16:58:06.000Z</time>
      </trkpt>
      <trkpt lat="43.01282" lon="0.73368">
        <ele>589.4</ele>
        <time>2023-03-19T16:58:13.000Z</time>
      </trkpt>
      <trkpt lat="43.01282" lon="0.73383">
        <ele>590</ele>
        <time>2023-03-19T16:58:20.000Z</time>
      </trkpt>
      <trkpt lat="43.01281" lon="0.73395">
        <ele>591.3</ele>
        <time>2023-03-19T16:58:26.000Z</time>
      </trkpt>
      <trkpt lat="43.01283" lon="0.73409">
        <ele>590.6</ele>
        <time>2023-03-19T16:58:35.000Z</time>
      </trkpt>
      <trkpt lat="43.01282" lon="0.73421">
        <ele>591.9</ele>
        <time>2023-03-19T16:58:41.000Z</time>
      </trkpt>
      <trkpt lat="43.01284" lon="0.73435">
        <ele>591.6</ele>
        <time>2023-03-19T16:58:48.000Z</time>
      </trkpt>
      <trkpt lat="43.01284" lon="0.73448">
        <ele>592.4</ele>
        <time>2023-03-19T16:58:55.000Z</time>
      </trkpt>
      <trkpt lat="43.01284" lon="0.73462">
        <ele>592.9</ele>
        <time>2023-03-19T16:59:04.000Z</time>
      </trkpt>
      <trkpt lat="43.01284" lon="0.73476">
        <ele>593.5</ele>
        <time>2023-03-19T16:59:11.000Z</time>
      </trkpt>
      <trkpt lat="43.01285" lon="0.73489">
        <ele>593.3</ele>
        <time>2023-03-19T16:59:18.000Z</time>
      </trkpt>
      <trkpt lat="43.01285" lon="0.73502">
        <ele>593.7</ele>
        <time>2023-03-19T16:59:25.000Z</time>
      </trkpt>
      <trkpt lat="43.01285" lon="0.73514">
        <ele>594.1</ele>
        <time>2023-03-19T16:59:31.000Z</time>
      </trkpt>
      <trkpt lat="43.01284" lon="0.73527">
        <ele>595</ele>
        <time>2023-03-19T16:59:38.000Z</time>
      </trkpt>
      <trkpt lat="43.01283" lon="0.73539">
        <ele>596.2</ele>
        <time>2023-03-19T16:59:45.000Z</time>
      </trkpt>
      <trkpt lat="43.01281" lon="0.73552">
        <ele>597.5</ele>
        <time>2023-03-19T16:59:53.000Z</time>
      </trkpt>
      <trkpt lat="43.0128" lon="0.73565">
        <ele>599.4</ele>
        <time>2023-03-19T17:00:01.000Z</time>
      </trkpt>
      <trkpt lat="43.01279" lon="0.73579">
        <ele>600.7</ele>
        <time>2023-03-19T17:00:09.000Z</time>
      </trkpt>
      <trkpt lat="43.01279" lon="0.73592">
        <ele>601.8</ele>
        <time>2023-03-19T17:00:16.000Z</time>
      </trkpt>
      <trkpt lat="43.01278" lon="0.73605">
        <ele>602.8</ele>
        <time>2023-03-19T17:00:23.000Z</time>
      </trkpt>
      <trkpt lat="43.01277" lon="0.73617">
        <ele>603.9</ele>
        <time>2023-03-19T17:00:29.000Z</time>
      </trkpt>
      <trkpt lat="43.01277" lon="0.7363">
        <ele>604.8</ele>
        <time>2023-03-19T17:00:37.000Z</time>
      </trkpt>
      <trkpt lat="43.01276" lon="0.73646">
        <ele>606.5</ele>
        <time>2023-03-19T17:00:44.000Z</time>
      </trkpt>
      <trkpt lat="43.01275" lon="0.73658">
        <ele>608</ele>
        <time>2023-03-19T17:00:50.000Z</time>
      </trkpt>
      <trkpt lat="43.01275" lon="0.73671">
        <ele>608.6</ele>
        <time>2023-03-19T17:00:58.000Z</time>
      </trkpt>
      <trkpt lat="43.01273" lon="0.73684">
        <ele>610.9</ele>
        <time>2023-03-19T17:01:07.000Z</time>
      </trkpt>
      <trkpt lat="43.01272" lon="0.73696">
        <ele>611.8</ele>
        <time>2023-03-19T17:01:15.000Z</time>
      </trkpt>
      <trkpt lat="43.01273" lon="0.7371">
        <ele>611.7</ele>
        <time>2023-03-19T17:01:22.000Z</time>
      </trkpt>
      <trkpt lat="43.01272" lon="0.73723">
        <ele>612.7</ele>
        <time>2023-03-19T17:01:28.000Z</time>
      </trkpt>
      <trkpt lat="43.01274" lon="0.73738">
        <ele>611.4</ele>
        <time>2023-03-19T17:01:37.000Z</time>
      </trkpt>
      <trkpt lat="43.01274" lon="0.73751">
        <ele>611.5</ele>
        <time>2023-03-19T17:01:44.000Z</time>
      </trkpt>
      <trkpt lat="43.01274" lon="0.73764">
        <ele>611.4</ele>
        <time>2023-03-19T17:01:51.000Z</time>
      </trkpt>
      <trkpt lat="43.01274" lon="0.73778">
        <ele>611.5</ele>
        <time>2023-03-19T17:01:59.000Z</time>
      </trkpt>
      <trkpt lat="43.01273" lon="0.73792">
        <ele>611.6</ele>
        <time>2023-03-19T17:02:04.000Z</time>
      </trkpt>
      <trkpt lat="43.01271" lon="0.73805">
        <ele>611.8</ele>
        <time>2023-03-19T17:02:11.000Z</time>
      </trkpt>
      <trkpt lat="43.0127" lon="0.73818">
        <ele>611.8</ele>
        <time>2023-03-19T17:02:18.000Z</time>
      </trkpt>
      <trkpt lat="43.01269" lon="0.7383">
        <ele>612.2</ele>
        <time>2023-03-19T17:02:24.000Z</time>
      </trkpt>
      <trkpt lat="43.01263" lon="0.73841">
        <ele>614.7</ele>
        <time>2023-03-19T17:02:31.000Z</time>
      </trkpt>
      <trkpt lat="43.01253" lon="0.73843">
        <ele>619.6</ele>
        <time>2023-03-19T17:02:49.000Z</time>
      </trkpt>
      <trkpt lat="43.01244" lon="0.73842">
        <ele>623.9</ele>
        <time>2023-03-19T17:02:57.000Z</time>
      </trkpt>
      <trkpt lat="43.01235" lon="0.73848">
        <ele>626.9</ele>
        <time>2023-03-19T17:03:06.000Z</time>
      </trkpt>
      <trkpt lat="43.01232" lon="0.73862">
        <ele>627</ele>
        <time>2023-03-19T17:03:14.000Z</time>
      </trkpt>
      <trkpt lat="43.01235" lon="0.73875">
        <ele>625.9</ele>
        <time>2023-03-19T17:03:21.000Z</time>
      </trkpt>
      <trkpt lat="43.01241" lon="0.73886">
        <ele>623.5</ele>
        <time>2023-03-19T17:03:28.000Z</time>
      </trkpt>
      <trkpt lat="43.01246" lon="0.73897">
        <ele>621.8</ele>
        <time>2023-03-19T17:03:36.000Z</time>
      </trkpt>
      <trkpt lat="43.01251" lon="0.73908">
        <ele>620.3</ele>
        <time>2023-03-19T17:03:44.000Z</time>
      </trkpt>
      <trkpt lat="43.01254" lon="0.7392">
        <ele>619.2</ele>
        <time>2023-03-19T17:03:52.000Z</time>
      </trkpt>
      <trkpt lat="43.01256" lon="0.73933">
        <ele>618.8</ele>
        <time>2023-03-19T17:04:00.000Z</time>
      </trkpt>
      <trkpt lat="43.01255" lon="0.73945">
        <ele>619.9</ele>
        <time>2023-03-19T17:04:09.000Z</time>
      </trkpt>
      <trkpt lat="43.01255" lon="0.73959">
        <ele>620.8</ele>
        <time>2023-03-19T17:04:16.000Z</time>
      </trkpt>
      <trkpt lat="43.01254" lon="0.73972">
        <ele>622.1</ele>
        <time>2023-03-19T17:04:24.000Z</time>
      </trkpt>
      <trkpt lat="43.01253" lon="0.73985">
        <ele>622.9</ele>
        <time>2023-03-19T17:04:31.000Z</time>
      </trkpt>
      <trkpt lat="43.0125" lon="0.73997">
        <ele>624.7</ele>
        <time>2023-03-19T17:04:37.000Z</time>
      </trkpt>
      <trkpt lat="43.01246" lon="0.7401">
        <ele>626.5</ele>
        <time>2023-03-19T17:04:43.000Z</time>
      </trkpt>
      <trkpt lat="43.01243" lon="0.74022">
        <ele>627.8</ele>
        <time>2023-03-19T17:04:49.000Z</time>
      </trkpt>
      <trkpt lat="43.01239" lon="0.74034">
        <ele>629.1</ele>
        <time>2023-03-19T17:04:57.000Z</time>
      </trkpt>
      <trkpt lat="43.01234" lon="0.74045">
        <ele>630.8</ele>
        <time>2023-03-19T17:05:04.000Z</time>
      </trkpt>
      <trkpt lat="43.01227" lon="0.74055">
        <ele>633</ele>
        <time>2023-03-19T17:05:12.000Z</time>
      </trkpt>
      <trkpt lat="43.0122" lon="0.74063">
        <ele>635.1</ele>
        <time>2023-03-19T17:05:19.000Z</time>
      </trkpt>
      <trkpt lat="43.01213" lon="0.74074">
        <ele>636.2</ele>
        <time>2023-03-19T17:05:26.000Z</time>
      </trkpt>
      <trkpt lat="43.01207" lon="0.74082">
        <ele>637.5</ele>
        <time>2023-03-19T17:05:32.000Z</time>
      </trkpt>
      <trkpt lat="43.012" lon="0.7409">
        <ele>638.7</ele>
        <time>2023-03-19T17:05:40.000Z</time>
      </trkpt>
      <trkpt lat="43.01196" lon="0.74101">
        <ele>638.7</ele>
        <time>2023-03-19T17:05:53.000Z</time>
      </trkpt>
      <trkpt lat="43.01197" lon="0.74114">
        <ele>637.1</ele>
        <time>2023-03-19T17:06:06.000Z</time>
      </trkpt>
      <trkpt lat="43.01197" lon="0.74114">
        <ele>637.1</ele>
        <time>2023-03-19T17:06:07.000Z</time>
      </trkpt>
      <trkpt lat="43.01196" lon="0.7412">
        <ele>636.7</ele>
        <time>2023-03-19T17:06:16.000Z</time>
      </trkpt>
      <trkpt lat="43.01195" lon="0.74128">
        <ele>635.9</ele>
        <time>2023-03-19T17:06:23.000Z</time>
      </trkpt>
      <trkpt lat="43.01198" lon="0.74135">
        <ele>634.3</ele>
        <time>2023-03-19T17:06:51.000Z</time>
      </trkpt>
      <trkpt lat="43.012" lon="0.74142">
        <ele>632.8</ele>
        <time>2023-03-19T17:06:57.000Z</time>
      </trkpt>
      <trkpt lat="43.01201" lon="0.74145">
        <ele>632.3</ele>
        <time>2023-03-19T17:06:59.000Z</time>
      </trkpt>
      <trkpt lat="43.01203" lon="0.74157">
        <ele>629.8</ele>
        <time>2023-03-19T17:07:09.000Z</time>
      </trkpt>
      <trkpt lat="43.01202" lon="0.7417">
        <ele>627.8</ele>
        <time>2023-03-19T17:07:20.000Z</time>
      </trkpt>
      <trkpt lat="43.01202" lon="0.74183">
        <ele>625.1</ele>
        <time>2023-03-19T17:07:31.000Z</time>
      </trkpt>
      <trkpt lat="43.01199" lon="0.74188">
        <ele>624.9</ele>
        <time>2023-03-19T17:07:40.000Z</time>
      </trkpt>
      <trkpt lat="43.01199" lon="0.74189">
        <ele>624.7</ele>
        <time>2023-03-19T17:07:41.000Z</time>
      </trkpt>
      <trkpt lat="43.01194" lon="0.74201">
        <ele>623.4</ele>
        <time>2023-03-19T17:07:49.000Z</time>
      </trkpt>
      <trkpt lat="43.01191" lon="0.74213">
        <ele>621.4</ele>
        <time>2023-03-19T17:07:54.000Z</time>
      </trkpt>
      <trkpt lat="43.01186" lon="0.74224">
        <ele>620.4</ele>
        <time>2023-03-19T17:08:03.000Z</time>
      </trkpt>
      <trkpt lat="43.01179" lon="0.74236">
        <ele>618.9</ele>
        <time>2023-03-19T17:08:14.000Z</time>
      </trkpt>
      <trkpt lat="43.01171" lon="0.74245">
        <ele>618.9</ele>
        <time>2023-03-19T17:08:22.000Z</time>
      </trkpt>
      <trkpt lat="43.01164" lon="0.74255">
        <ele>617.9</ele>
        <time>2023-03-19T17:08:29.000Z</time>
      </trkpt>
      <trkpt lat="43.01157" lon="0.74264">
        <ele>616.7</ele>
        <time>2023-03-19T17:08:37.000Z</time>
      </trkpt>
      <trkpt lat="43.01149" lon="0.74272">
        <ele>616.2</ele>
        <time>2023-03-19T17:08:44.000Z</time>
      </trkpt>
      <trkpt lat="43.01141" lon="0.74278">
        <ele>616.2</ele>
        <time>2023-03-19T17:08:53.000Z</time>
      </trkpt>
      <trkpt lat="43.01134" lon="0.74286">
        <ele>615.7</ele>
        <time>2023-03-19T17:09:01.000Z</time>
      </trkpt>
      <trkpt lat="43.01125" lon="0.74295">
        <ele>614.6</ele>
        <time>2023-03-19T17:09:07.000Z</time>
      </trkpt>
      <trkpt lat="43.01117" lon="0.74299">
        <ele>615.1</ele>
        <time>2023-03-19T17:09:12.000Z</time>
      </trkpt>
      <trkpt lat="43.01107" lon="0.74303">
        <ele>615.8</ele>
        <time>2023-03-19T17:09:18.000Z</time>
      </trkpt>
      <trkpt lat="43.01098" lon="0.74305">
        <ele>616.7</ele>
        <time>2023-03-19T17:09:26.000Z</time>
      </trkpt>
      <trkpt lat="43.01088" lon="0.74305">
        <ele>618.3</ele>
        <time>2023-03-19T17:09:36.000Z</time>
      </trkpt>
      <trkpt lat="43.01079" lon="0.74309">
        <ele>618.4</ele>
        <time>2023-03-19T17:09:42.000Z</time>
      </trkpt>
      <trkpt lat="43.0107" lon="0.74315">
        <ele>617.9</ele>
        <time>2023-03-19T17:09:49.000Z</time>
      </trkpt>
      <trkpt lat="43.01061" lon="0.74321">
        <ele>617.1</ele>
        <time>2023-03-19T17:09:58.000Z</time>
      </trkpt>
      <trkpt lat="43.01054" lon="0.74332">
        <ele>614.7</ele>
        <time>2023-03-19T17:10:04.000Z</time>
      </trkpt>
      <trkpt lat="43.01046" lon="0.74339">
        <ele>613.6</ele>
        <time>2023-03-19T17:10:13.000Z</time>
      </trkpt>
      <trkpt lat="43.01039" lon="0.74349">
        <ele>612</ele>
        <time>2023-03-19T17:10:23.000Z</time>
      </trkpt>
      <trkpt lat="43.01033" lon="0.74358">
        <ele>610.1</ele>
        <time>2023-03-19T17:10:31.000Z</time>
      </trkpt>
      <trkpt lat="43.01026" lon="0.74367">
        <ele>608.5</ele>
        <time>2023-03-19T17:10:38.000Z</time>
      </trkpt>
      <trkpt lat="43.01022" lon="0.7438">
        <ele>605.4</ele>
        <time>2023-03-19T17:10:47.000Z</time>
      </trkpt>
      <trkpt lat="43.01017" lon="0.74391">
        <ele>603</ele>
        <time>2023-03-19T17:10:57.000Z</time>
      </trkpt>
      <trkpt lat="43.01013" lon="0.74394">
        <ele>602.7</ele>
        <time>2023-03-19T17:11:05.000Z</time>
      </trkpt>
      <trkpt lat="43.0101" lon="0.74396">
        <ele>602.6</ele>
        <time>2023-03-19T17:11:07.000Z</time>
      </trkpt>
      <trkpt lat="43.01004" lon="0.74406">
        <ele>601</ele>
        <time>2023-03-19T17:11:14.000Z</time>
      </trkpt>
      <trkpt lat="43.00997" lon="0.74416">
        <ele>599.6</ele>
        <time>2023-03-19T17:11:22.000Z</time>
      </trkpt>
      <trkpt lat="43.0099" lon="0.74426">
        <ele>597.9</ele>
        <time>2023-03-19T17:11:32.000Z</time>
      </trkpt>
      <trkpt lat="43.00981" lon="0.74433">
        <ele>597</ele>
        <time>2023-03-19T17:11:44.000Z</time>
      </trkpt>
      <trkpt lat="43.00971" lon="0.74438">
        <ele>596.9</ele>
        <time>2023-03-19T17:11:51.000Z</time>
      </trkpt>
      <trkpt lat="43.00961" lon="0.74441">
        <ele>597.4</ele>
        <time>2023-03-19T17:11:58.000Z</time>
      </trkpt>
      <trkpt lat="43.00951" lon="0.74444">
        <ele>598.1</ele>
        <time>2023-03-19T17:12:06.000Z</time>
      </trkpt>
      <trkpt lat="43.00942" lon="0.74448">
        <ele>598.4</ele>
        <time>2023-03-19T17:12:14.000Z</time>
      </trkpt>
      <trkpt lat="43.00933" lon="0.74453">
        <ele>597.9</ele>
        <time>2023-03-19T17:12:21.000Z</time>
      </trkpt>
      <trkpt lat="43.00925" lon="0.7446">
        <ele>597.2</ele>
        <time>2023-03-19T17:12:28.000Z</time>
      </trkpt>
      <trkpt lat="43.00917" lon="0.74466">
        <ele>596.4</ele>
        <time>2023-03-19T17:12:37.000Z</time>
      </trkpt>
      <trkpt lat="43.00914" lon="0.74479">
        <ele>593.5</ele>
        <time>2023-03-19T17:12:47.000Z</time>
      </trkpt>
      <trkpt lat="43.00908" lon="0.74489">
        <ele>591.5</ele>
        <time>2023-03-19T17:12:57.000Z</time>
      </trkpt>
      <trkpt lat="43.00901" lon="0.74497">
        <ele>589.8</ele>
        <time>2023-03-19T17:13:06.000Z</time>
      </trkpt>
      <trkpt lat="43.00893" lon="0.74507">
        <ele>587.8</ele>
        <time>2023-03-19T17:13:13.000Z</time>
      </trkpt>
      <trkpt lat="43.00885" lon="0.74515">
        <ele>585.8</ele>
        <time>2023-03-19T17:13:20.000Z</time>
      </trkpt>
      <trkpt lat="43.00877" lon="0.74522">
        <ele>583.8</ele>
        <time>2023-03-19T17:13:27.000Z</time>
      </trkpt>
      <trkpt lat="43.00867" lon="0.74527">
        <ele>582.4</ele>
        <time>2023-03-19T17:13:35.000Z</time>
      </trkpt>
      <trkpt lat="43.00858" lon="0.74533">
        <ele>580.5</ele>
        <time>2023-03-19T17:13:43.000Z</time>
      </trkpt>
      <trkpt lat="43.00849" lon="0.74541">
        <ele>577.8</ele>
        <time>2023-03-19T17:13:52.000Z</time>
      </trkpt>
      <trkpt lat="43.0084" lon="0.74545">
        <ele>576.3</ele>
        <time>2023-03-19T17:14:03.000Z</time>
      </trkpt>
      <trkpt lat="43.00831" lon="0.7455">
        <ele>574.2</ele>
        <time>2023-03-19T17:14:12.000Z</time>
      </trkpt>
      <trkpt lat="43.00822" lon="0.74554">
        <ele>571.8</ele>
        <time>2023-03-19T17:14:22.000Z</time>
      </trkpt>
      <trkpt lat="43.00813" lon="0.74559">
        <ele>569.2</ele>
        <time>2023-03-19T17:14:31.000Z</time>
      </trkpt>
      <trkpt lat="43.00804" lon="0.74563">
        <ele>566.9</ele>
        <time>2023-03-19T17:14:39.000Z</time>
      </trkpt>
      <trkpt lat="43.00794" lon="0.74565">
        <ele>564.5</ele>
        <time>2023-03-19T17:14:46.000Z</time>
      </trkpt>
      <trkpt lat="43.00784" lon="0.74567">
        <ele>562.3</ele>
        <time>2023-03-19T17:14:53.000Z</time>
      </trkpt>
      <trkpt lat="43.00775" lon="0.7457">
        <ele>559.9</ele>
        <time>2023-03-19T17:15:01.000Z</time>
      </trkpt>
      <trkpt lat="43.00765" lon="0.74572">
        <ele>557.5</ele>
        <time>2023-03-19T17:15:08.000Z</time>
      </trkpt>
      <trkpt lat="43.00755" lon="0.74575">
        <ele>555.1</ele>
        <time>2023-03-19T17:15:15.000Z</time>
      </trkpt>
      <trkpt lat="43.00747" lon="0.74569">
        <ele>555.2</ele>
        <time>2023-03-19T17:15:27.000Z</time>
      </trkpt>
      <trkpt lat="43.00738" lon="0.74564">
        <ele>554.8</ele>
        <time>2023-03-19T17:15:36.000Z</time>
      </trkpt>
      <trkpt lat="43.00727" lon="0.74559">
        <ele>554.1</ele>
        <time>2023-03-19T17:15:43.000Z</time>
      </trkpt>
      <trkpt lat="43.00718" lon="0.74555">
        <ele>553.5</ele>
        <time>2023-03-19T17:15:49.000Z</time>
      </trkpt>
      <trkpt lat="43.00709" lon="0.74552">
        <ele>552.8</ele>
        <time>2023-03-19T17:15:56.000Z</time>
      </trkpt>
      <trkpt lat="43.007" lon="0.74548">
        <ele>552.2</ele>
        <time>2023-03-19T17:16:05.000Z</time>
      </trkpt>
      <trkpt lat="43.00691" lon="0.74545">
        <ele>551.6</ele>
        <time>2023-03-19T17:16:11.000Z</time>
      </trkpt>
      <trkpt lat="43.00681" lon="0.74544">
        <ele>551.1</ele>
        <time>2023-03-19T17:16:17.000Z</time>
      </trkpt>
      <trkpt lat="43.00671" lon="0.74544">
        <ele>550.4</ele>
        <time>2023-03-19T17:16:26.000Z</time>
      </trkpt>
      <trkpt lat="43.00662" lon="0.74541">
        <ele>550.7</ele>
        <time>2023-03-19T17:16:36.000Z</time>
      </trkpt>
      <trkpt lat="43.00653" lon="0.74537">
        <ele>551.8</ele>
        <time>2023-03-19T17:16:44.000Z</time>
      </trkpt>
      <trkpt lat="43.00643" lon="0.74534">
        <ele>552.7</ele>
        <time>2023-03-19T17:16:52.000Z</time>
      </trkpt>
      <trkpt lat="43.00634" lon="0.74538">
        <ele>552.7</ele>
        <time>2023-03-19T17:17:00.000Z</time>
      </trkpt>
      <trkpt lat="43.00625" lon="0.74541">
        <ele>553.3</ele>
        <time>2023-03-19T17:17:09.000Z</time>
      </trkpt>
      <trkpt lat="43.00615" lon="0.74541">
        <ele>554.1</ele>
        <time>2023-03-19T17:17:17.000Z</time>
      </trkpt>
      <trkpt lat="43.00606" lon="0.74539">
        <ele>556</ele>
        <time>2023-03-19T17:17:29.000Z</time>
      </trkpt>
      <trkpt lat="43.00599" lon="0.74531">
        <ele>558.7</ele>
        <time>2023-03-19T17:17:42.000Z</time>
      </trkpt>
      <trkpt lat="43.00588" lon="0.74528">
        <ele>561.1</ele>
        <time>2023-03-19T17:17:52.000Z</time>
      </trkpt>
      <trkpt lat="43.00582" lon="0.74519">
        <ele>563.5</ele>
        <time>2023-03-19T17:18:07.000Z</time>
      </trkpt>
      <trkpt lat="43.00586" lon="0.74508">
        <ele>564.4</ele>
        <time>2023-03-19T17:18:17.000Z</time>
      </trkpt>
      <trkpt lat="43.00593" lon="0.74499">
        <ele>564.4</ele>
        <time>2023-03-19T17:18:26.000Z</time>
      </trkpt>
      <trkpt lat="43.00599" lon="0.74488">
        <ele>564.9</ele>
        <time>2023-03-19T17:18:36.000Z</time>
      </trkpt>
      <trkpt lat="43.006" lon="0.74476">
        <ele>566.6</ele>
        <time>2023-03-19T17:18:44.000Z</time>
      </trkpt>
      <trkpt lat="43.00594" lon="0.74466">
        <ele>569</ele>
        <time>2023-03-19T17:18:54.000Z</time>
      </trkpt>
      <trkpt lat="43.0059" lon="0.74454">
        <ele>571.6</ele>
        <time>2023-03-19T17:19:05.000Z</time>
      </trkpt>
      <trkpt lat="43.00581" lon="0.74448">
        <ele>574</ele>
        <time>2023-03-19T17:19:16.000Z</time>
      </trkpt>
      <trkpt lat="43.0057" lon="0.74444">
        <ele>576.5</ele>
        <time>2023-03-19T17:19:25.000Z</time>
      </trkpt>
      <trkpt lat="43.0056" lon="0.74442">
        <ele>578.4</ele>
        <time>2023-03-19T17:19:32.000Z</time>
      </trkpt>
      <trkpt lat="43.00551" lon="0.74441">
        <ele>580.2</ele>
        <time>2023-03-19T17:19:40.000Z</time>
      </trkpt>
      <trkpt lat="43.00541" lon="0.74441">
        <ele>582</ele>
        <time>2023-03-19T17:19:51.000Z</time>
      </trkpt>
      <trkpt lat="43.00532" lon="0.74436">
        <ele>584.1</ele>
        <time>2023-03-19T17:20:00.000Z</time>
      </trkpt>
      <trkpt lat="43.00523" lon="0.7444">
        <ele>585.5</ele>
        <time>2023-03-19T17:20:11.000Z</time>
      </trkpt>
      <trkpt lat="43.00514" lon="0.74442">
        <ele>587.3</ele>
        <time>2023-03-19T17:20:18.000Z</time>
      </trkpt>
      <trkpt lat="43.00504" lon="0.74448">
        <ele>588.7</ele>
        <time>2023-03-19T17:20:25.000Z</time>
      </trkpt>
      <trkpt lat="43.00496" lon="0.74454">
        <ele>589.4</ele>
        <time>2023-03-19T17:20:31.000Z</time>
      </trkpt>
      <trkpt lat="43.00488" lon="0.74458">
        <ele>590.5</ele>
        <time>2023-03-19T17:20:38.000Z</time>
      </trkpt>
      <trkpt lat="43.00478" lon="0.74461">
        <ele>592</ele>
        <time>2023-03-19T17:20:49.000Z</time>
      </trkpt>
      <trkpt lat="43.0047" lon="0.74468">
        <ele>592.9</ele>
        <time>2023-03-19T17:20:58.000Z</time>
      </trkpt>
      <trkpt lat="43.00462" lon="0.74475">
        <ele>593.2</ele>
        <time>2023-03-19T17:21:04.000Z</time>
      </trkpt>
      <trkpt lat="43.00453" lon="0.74479">
        <ele>593.9</ele>
        <time>2023-03-19T17:21:10.000Z</time>
      </trkpt>
      <trkpt lat="43.00445" lon="0.74485">
        <ele>594.7</ele>
        <time>2023-03-19T17:21:17.000Z</time>
      </trkpt>
      <trkpt lat="43.00435" lon="0.74491">
        <ele>596.2</ele>
        <time>2023-03-19T17:21:25.000Z</time>
      </trkpt>
      <trkpt lat="43.00425" lon="0.74495">
        <ele>598.2</ele>
        <time>2023-03-19T17:21:36.000Z</time>
      </trkpt>
      <trkpt lat="43.00417" lon="0.74501">
        <ele>600</ele>
        <time>2023-03-19T17:21:44.000Z</time>
      </trkpt>
      <trkpt lat="43.00408" lon="0.74506">
        <ele>601.4</ele>
        <time>2023-03-19T17:21:53.000Z</time>
      </trkpt>
      <trkpt lat="43.00398" lon="0.74508">
        <ele>603.2</ele>
        <time>2023-03-19T17:22:01.000Z</time>
      </trkpt>
      <trkpt lat="43.00389" lon="0.74508">
        <ele>605.1</ele>
        <time>2023-03-19T17:22:08.000Z</time>
      </trkpt>
      <trkpt lat="43.00379" lon="0.74507">
        <ele>606.3</ele>
        <time>2023-03-19T17:22:16.000Z</time>
      </trkpt>
      <trkpt lat="43.0037" lon="0.74504">
        <ele>607.7</ele>
        <time>2023-03-19T17:22:25.000Z</time>
      </trkpt>
      <trkpt lat="43.0036" lon="0.74497">
        <ele>609.4</ele>
        <time>2023-03-19T17:22:34.000Z</time>
      </trkpt>
      <trkpt lat="43.00353" lon="0.74489">
        <ele>610.8</ele>
        <time>2023-03-19T17:22:42.000Z</time>
      </trkpt>
      <trkpt lat="43.00345" lon="0.74481">
        <ele>612.2</ele>
        <time>2023-03-19T17:22:50.000Z</time>
      </trkpt>
      <trkpt lat="43.00336" lon="0.74474">
        <ele>613.6</ele>
        <time>2023-03-19T17:22:58.000Z</time>
      </trkpt>
      <trkpt lat="43.00326" lon="0.74472">
        <ele>614.1</ele>
        <time>2023-03-19T17:23:07.000Z</time>
      </trkpt>
      <trkpt lat="43.0032" lon="0.74472">
        <ele>614</ele>
        <time>2023-03-19T17:23:20.000Z</time>
      </trkpt>
      <trkpt lat="43.0032" lon="0.74472">
        <ele>614</ele>
        <time>2023-03-19T17:23:20.000Z</time>
      </trkpt>
    </trkseg>
  </trk>
</gpx>